createdAt,value
2022-10-11T00:01:07.895Z,95095.34
2022-10-11T00:03:34.373Z,95088.47
2022-10-11T00:06:03.148Z,95102.25
2022-10-11T00:08:30.158Z,95070.50
2022-10-11T00:11:00.487Z,95061.50
2022-10-11T00:13:27.149Z,95102.91
2022-10-11T00:15:53.691Z,95143.59
2022-10-11T00:18:20.462Z,95162.41
2022-10-11T00:20:46.854Z,95185.31
2022-10-11T00:23:13.263Z,95206.13
2022-10-11T00:25:39.647Z,95221.81
2022-10-11T00:28:06.190Z,95250.28
2022-10-11T00:30:32.968Z,95268.72
2022-10-11T00:32:59.356Z,95290.97
2022-10-11T00:35:25.771Z,95301.59
2022-10-11T00:37:52.150Z,95289.03
2022-10-11T00:40:19.674Z,95300.97
2022-10-11T00:42:46.145Z,95315.84
2022-10-11T00:45:27.930Z,95320.91
2022-10-11T00:47:55.162Z,95331.22
2022-10-11T00:50:22.816Z,95355.72
2022-10-11T00:52:54.881Z,95325.19
2022-10-11T00:55:21.363Z,95341.53
2022-10-11T00:57:48.552Z,95329.94
2022-10-11T01:00:15.705Z,95356.41
2022-10-11T01:02:42.337Z,95372.41
2022-10-11T01:05:28.157Z,95431.88
2022-10-11T01:07:55.371Z,95430.56
2022-10-11T01:10:21.972Z,95429.44
2022-10-11T01:13:08.596Z,95471.22
2022-10-11T01:15:37.245Z,95465.66
2022-10-11T01:18:07.812Z,95468.13
2022-10-11T01:20:39.650Z,95490.63
2022-10-11T01:23:11.981Z,95493.94
2022-10-11T01:25:41.839Z,95521.34
2022-10-11T01:28:29.494Z,95526.91
2022-10-11T01:30:56.799Z,95578.84
2022-10-11T01:33:52.565Z,95615.72
2022-10-11T01:36:31.862Z,95657.31
2022-10-11T01:39:23.301Z,95661.94
2022-10-11T01:41:51.600Z,95702.91
2022-10-11T01:44:17.996Z,95733.78
2022-10-11T01:46:44.401Z,95772.59
2022-10-11T01:49:10.935Z,95789.41
2022-10-11T01:51:48.740Z,95826.56
2022-10-11T01:55:08.295Z,95825.81
2022-10-11T01:57:40.922Z,95814.09
2022-10-11T02:00:13.998Z,95820.00
2022-10-11T02:02:54.194Z,95843.13
2022-10-11T02:05:38.927Z,95846.19
2022-10-11T02:08:08.347Z,95853.56
2022-10-11T02:10:41.113Z,95895.97
2022-10-11T02:13:33.988Z,95917.13
2022-10-11T02:16:02.438Z,95909.69
2022-10-11T02:18:36.368Z,95920.13
2022-10-11T02:21:04.716Z,95945.88
2022-10-11T02:23:37.933Z,95979.44
2022-10-11T02:26:04.917Z,95998.03
2022-10-11T02:28:32.985Z,96011.34
2022-10-11T02:31:00.369Z,96004.03
2022-10-11T02:33:30.984Z,96012.03
2022-10-11T02:35:59.928Z,96081.06
2022-10-11T02:38:28.514Z,96072.25
2022-10-11T02:41:00.164Z,96158.59
2022-10-11T02:43:41.587Z,96225.91
2022-10-11T02:46:08.806Z,96234.00
2022-10-11T02:48:35.738Z,96228.09
2022-10-11T02:51:02.372Z,96275.88
2022-10-11T02:53:28.861Z,96292.63
2022-10-11T02:55:55.466Z,96237.41
2022-10-11T02:58:22.276Z,96215.31
2022-10-11T03:00:48.695Z,96267.59
2022-10-11T03:03:15.140Z,96333.50
2022-10-11T03:05:41.624Z,96382.91
2022-10-11T03:08:08.584Z,96334.59
2022-10-11T03:10:35.139Z,96362.38
2022-10-11T03:13:01.721Z,96415.75
2022-10-11T03:15:28.186Z,96452.81
2022-10-11T03:17:54.711Z,96529.06
2022-10-11T03:20:21.116Z,96540.31
2022-10-11T03:22:47.614Z,96537.25
2022-10-11T03:25:14.093Z,96599.75
2022-10-11T03:27:40.466Z,96604.47
2022-10-11T03:30:08.820Z,96641.34
2022-10-11T03:32:35.214Z,96692.28
2022-10-11T03:35:01.653Z,96699.66
2022-10-11T03:37:28.032Z,96726.88
2022-10-11T03:39:54.418Z,96751.03
2022-10-11T03:42:20.846Z,96781.13
2022-10-11T03:44:49.522Z,96788.94
2022-10-11T03:47:16.080Z,96777.22
2022-10-11T03:49:43.810Z,96773.66
2022-10-11T03:52:10.586Z,96792.94
2022-10-11T03:54:36.966Z,96827.19
2022-10-11T03:57:03.420Z,96849.41
2022-10-11T03:59:29.928Z,96861.13
2022-10-11T04:01:56.819Z,96808.78
2022-10-11T04:04:23.243Z,96744.78
2022-10-11T04:06:49.619Z,96654.44
2022-10-11T04:09:16.016Z,96616.91
2022-10-11T04:11:42.394Z,96554.22
2022-10-11T04:14:08.798Z,96385.22
2022-10-11T04:16:35.365Z,96267.84
2022-10-11T04:19:01.786Z,96182.94
2022-10-11T04:21:28.152Z,96133.41
2022-10-11T04:23:54.779Z,96078.13
2022-10-11T04:26:21.163Z,96061.91
2022-10-11T04:28:47.631Z,96056.69
2022-10-11T04:31:14.082Z,96059.19
2022-10-11T04:33:40.482Z,96069.06
2022-10-11T04:36:08.091Z,96075.78
2022-10-11T04:38:34.966Z,96084.56
2022-10-11T04:41:08.450Z,96090.19
2022-10-11T04:43:35.004Z,96089.34
2022-10-11T04:46:01.621Z,96076.75
2022-10-11T04:48:28.081Z,96035.03
2022-10-11T04:50:54.529Z,96018.56
2022-10-11T04:53:20.912Z,96012.09
2022-10-11T04:56:01.278Z,96020.19
2022-10-11T04:58:28.808Z,96038.84
2022-10-11T05:00:55.269Z,96049.59
2022-10-11T05:03:21.677Z,96060.81
2022-10-11T05:05:48.231Z,96060.41
2022-10-11T05:08:14.778Z,96074.38
2022-10-11T05:10:41.195Z,96098.97
2022-10-11T05:13:07.621Z,96118.72
2022-10-11T05:15:34.040Z,96138.78
2022-10-11T05:18:00.479Z,96199.16
2022-10-11T05:20:27.776Z,96226.03
2022-10-11T05:22:54.165Z,96199.44
2022-10-11T05:25:20.560Z,96198.47
2022-10-11T05:27:47.032Z,96213.28
2022-10-11T05:30:13.499Z,96219.44
2022-10-11T05:32:39.926Z,96216.47
2022-10-11T05:35:07.068Z,96219.75
2022-10-11T05:37:33.516Z,96277.66
2022-10-11T05:39:59.894Z,96293.31
2022-10-11T05:42:26.286Z,96259.00
2022-10-11T05:44:52.661Z,96260.50
2022-10-11T05:47:19.055Z,96253.41
2022-10-11T05:49:45.434Z,96266.44
2022-10-11T05:52:13.181Z,96277.94
2022-10-11T05:54:39.660Z,96278.50
2022-10-11T05:57:06.036Z,96333.94
2022-10-11T05:59:32.496Z,96300.34
2022-10-11T06:01:58.883Z,96285.38
2022-10-11T06:04:25.360Z,96273.84
2022-10-11T06:06:51.833Z,96281.78
2022-10-11T06:09:18.530Z,96276.56
2022-10-11T06:11:45.462Z,96260.00
2022-10-11T06:14:11.856Z,96234.38
2022-10-11T06:16:38.281Z,96212.94
2022-10-11T06:19:04.772Z,96197.03
2022-10-11T06:21:31.245Z,96174.22
2022-10-11T06:24:01.404Z,96160.22
2022-10-11T06:26:29.025Z,96137.44
2022-10-11T06:28:55.634Z,96123.16
2022-10-11T06:31:22.277Z,96104.50
2022-10-11T06:33:48.656Z,96091.72
2022-10-11T06:36:15.552Z,96050.13
2022-10-11T06:38:44.922Z,96023.72
2022-10-11T06:41:19.635Z,95999.31
2022-10-11T06:43:46.018Z,95974.41
2022-10-11T06:46:12.695Z,95971.28
2022-10-11T06:48:40.266Z,95948.19
2022-10-11T06:51:06.673Z,95938.84
2022-10-11T06:53:33.047Z,95938.28
2022-10-11T06:56:07.273Z,95927.44
2022-10-11T06:58:34.226Z,95906.94
2022-10-11T07:01:02.113Z,95890.13
2022-10-11T07:03:29.151Z,95887.88
2022-10-11T07:06:19.737Z,95894.84
2022-10-11T07:08:46.538Z,95913.19
2022-10-11T07:11:15.243Z,95934.47
2022-10-11T07:13:41.904Z,95960.28
2022-10-11T07:16:10.288Z,95988.03
2022-10-11T07:18:36.736Z,96017.84
2022-10-11T07:21:07.368Z,96037.19
2022-10-11T07:23:33.970Z,96064.66
2022-10-11T07:26:00.404Z,96072.59
2022-10-11T07:28:27.220Z,96105.91
2022-10-11T07:30:53.638Z,96119.63
2022-10-11T07:33:20.137Z,96141.75
2022-10-11T07:35:48.563Z,96195.53
2022-10-11T07:38:15.368Z,96205.41
2022-10-11T07:40:43.011Z,96234.53
2022-10-11T07:43:10.476Z,96257.78
2022-10-11T07:45:38.482Z,96255.31
2022-10-11T07:48:04.981Z,96265.63
2022-10-11T07:50:31.393Z,96305.22
2022-10-11T07:52:57.815Z,96324.75
2022-10-11T07:55:25.229Z,96343.47
2022-10-11T07:57:51.643Z,96386.25
2022-10-11T08:00:18.287Z,96425.34
2022-10-11T08:02:44.746Z,96473.66
2022-10-11T08:05:11.138Z,96491.53
2022-10-11T08:07:37.568Z,96522.41
2022-10-11T08:10:05.592Z,96565.06
2022-10-11T08:12:32.015Z,96601.16
2022-10-11T08:14:58.524Z,96602.28
2022-10-11T08:17:25.004Z,96595.56
2022-10-11T08:19:51.742Z,96653.53
2022-10-11T08:22:18.149Z,96705.03
2022-10-11T08:24:44.557Z,96777.53
2022-10-11T08:27:10.939Z,96798.88
2022-10-11T08:29:37.383Z,96811.44
2022-10-11T08:32:03.985Z,96808.97
2022-10-11T08:34:30.360Z,96840.81
2022-10-11T08:36:56.765Z,96880.94
2022-10-11T08:39:23.169Z,96937.16
2022-10-11T08:42:00.166Z,96947.38
2022-10-11T08:45:17.461Z,96960.91
2022-10-11T08:47:44.604Z,96979.69
2022-10-11T08:50:20.125Z,96996.56
2022-10-11T08:52:52.670Z,97015.31
2022-10-11T08:55:29.000Z,97060.53
2022-10-11T08:57:56.265Z,97097.09
2022-10-11T09:00:23.378Z,97183.44
2022-10-11T09:03:11.125Z,97231.03
2022-10-11T09:06:07.663Z,97204.78
2022-10-11T09:08:45.555Z,97279.84
2022-10-11T09:11:36.807Z,97318.66
2022-10-11T09:14:24.978Z,97346.28
2022-10-11T09:16:51.363Z,97392.97
2022-10-11T09:19:33.095Z,97381.72
2022-10-11T09:22:45.697Z,97424.88
2022-10-11T09:25:16.191Z,97410.84
2022-10-11T09:28:19.913Z,97460.34
2022-10-11T09:30:48.795Z,97455.66
2022-10-11T09:33:18.182Z,97514.91
2022-10-11T09:35:47.454Z,97504.44
2022-10-11T09:38:38.933Z,97595.91
2022-10-11T09:41:21.513Z,97608.66
2022-10-11T09:43:48.575Z,97671.16
2022-10-11T09:46:29.147Z,97762.31
2022-10-11T09:48:55.607Z,97760.16
2022-10-11T09:51:22.856Z,97786.88
2022-10-11T09:53:50.537Z,97868.00
2022-10-11T09:56:16.967Z,97875.19
2022-10-11T09:58:43.509Z,97893.13
2022-10-11T10:01:22.166Z,97936.69
2022-10-11T10:03:48.558Z,97997.72
2022-10-11T10:06:23.160Z,98082.97
2022-10-11T10:08:50.542Z,98097.88
2022-10-11T10:11:17.275Z,98206.38
2022-10-11T10:13:56.207Z,98366.34
2022-10-11T10:16:26.300Z,98483.56
2022-10-11T10:18:57.892Z,98570.84
2022-10-11T10:21:33.243Z,98731.41
2022-10-11T10:24:03.046Z,98795.97
2022-10-11T10:26:29.491Z,98855.59
2022-10-11T10:29:10.773Z,98939.88
2022-10-11T10:31:55.283Z,99060.47
2022-10-11T10:34:33.781Z,99133.19
2022-10-11T10:37:20.307Z,99338.75
2022-10-11T10:39:48.930Z,99318.28
2022-10-11T10:42:19.043Z,99295.94
2022-10-11T10:44:52.414Z,99232.75
2022-10-11T10:47:25.111Z,99398.34
2022-10-11T10:49:58.295Z,99574.63
2022-10-11T10:53:03.647Z,99642.41
2022-10-11T10:55:46.192Z,99715.63
2022-10-11T10:58:19.060Z,99625.69
2022-10-11T11:00:50.163Z,99737.47
2022-10-11T11:03:27.367Z,99703.00
2022-10-11T11:05:53.772Z,99858.88
2022-10-11T11:08:41.449Z,99958.19
2022-10-11T11:11:26.579Z,100021.03
2022-10-11T11:14:02.121Z,100054.97
2022-10-11T11:16:37.448Z,100313.75
2022-10-11T11:19:23.118Z,100370.03
2022-10-11T11:21:55.440Z,100499.22
2022-10-11T11:24:46.802Z,100533.81
2022-10-11T11:27:13.158Z,100597.69
2022-10-11T11:29:56.213Z,100433.00
2022-10-11T11:32:22.601Z,100397.63
2022-10-11T11:35:01.346Z,100468.41
2022-10-11T11:37:38.784Z,100526.72
2022-10-11T11:40:18.156Z,100473.09
2022-10-11T11:42:50.477Z,100563.84
2022-10-11T11:45:41.220Z,100664.47
2022-10-11T11:48:12.690Z,100700.50
2022-10-11T11:50:41.582Z,100665.97
2022-10-11T11:53:13.815Z,100692.34
2022-10-11T11:55:55.910Z,100749.25
2022-10-11T11:58:25.262Z,100739.09
2022-10-11T12:00:55.163Z,100691.63
2022-10-11T12:03:25.057Z,100837.13
2022-10-11T12:06:16.236Z,100892.91
2022-10-11T12:08:44.294Z,101005.19
2022-10-11T12:11:24.111Z,101135.09
2022-10-11T12:13:51.118Z,101173.38
2022-10-11T12:16:17.657Z,101261.16
2022-10-11T12:18:56.284Z,101283.09
2022-10-11T12:21:32.820Z,101267.53
2022-10-11T12:24:00.740Z,101164.03
2022-10-11T12:26:38.236Z,101127.34
2022-10-11T12:29:17.327Z,101254.88
2022-10-11T12:31:46.198Z,101289.19
2022-10-11T12:34:36.422Z,101210.56
2022-10-11T12:37:23.392Z,101271.84
2022-10-11T12:39:53.321Z,101215.09
2022-10-11T12:42:41.480Z,101218.13
2022-10-11T12:45:10.884Z,101274.38
2022-10-11T12:47:52.744Z,101320.16
2022-10-11T12:50:28.161Z,101315.81
2022-10-11T12:53:01.283Z,101367.06
2022-10-11T12:55:42.746Z,101401.47
2022-10-11T12:58:28.146Z,101450.66
2022-10-11T13:00:57.869Z,101550.06
2022-10-11T13:03:31.222Z,101538.56
2022-10-11T13:06:01.721Z,101554.88
2022-10-11T13:08:35.779Z,101547.31
2022-10-11T13:11:04.699Z,101519.66
2022-10-11T13:13:33.033Z,101504.09
2022-10-11T13:16:04.219Z,101498.81
2022-10-11T13:18:30.844Z,101480.53
2022-10-11T13:20:57.222Z,101547.66
2022-10-11T13:23:25.817Z,101564.66
2022-10-11T13:25:52.798Z,101549.16
2022-10-11T13:28:19.533Z,101564.94
2022-10-11T13:30:47.881Z,101552.81
2022-10-11T13:33:34.525Z,101584.38
2022-10-11T13:36:02.184Z,101566.16
2022-10-11T13:38:30.766Z,101503.91
2022-10-11T13:40:58.146Z,101537.06
2022-10-11T13:43:28.812Z,101504.53
2022-10-11T13:45:55.886Z,101484.81
2022-10-11T13:48:22.566Z,101492.84
2022-10-11T13:51:08.514Z,101465.72
2022-10-11T13:53:34.929Z,101475.16
2022-10-11T13:56:06.255Z,101479.31
2022-10-11T13:58:47.585Z,101460.59
2022-10-11T14:01:18.618Z,101467.16
2022-10-11T14:04:02.605Z,101450.59
2022-10-11T14:06:59.336Z,101457.59
2022-10-11T14:09:30.957Z,101493.78
2022-10-11T14:12:38.174Z,101504.94
2022-10-11T14:15:06.120Z,101525.44
2022-10-11T14:17:43.541Z,101563.69
2022-10-11T14:20:16.658Z,101555.44
2022-10-11T14:22:43.643Z,101535.41
2022-10-11T14:25:10.049Z,101513.44
2022-10-11T14:27:36.554Z,101481.13
2022-10-11T14:30:24.706Z,101503.16
2022-10-11T14:32:53.696Z,101469.13
2022-10-11T14:35:27.749Z,101439.34
2022-10-11T14:37:54.220Z,101415.41
2022-10-11T14:40:22.538Z,101421.09
2022-10-11T14:42:49.111Z,101427.13
2022-10-11T14:45:15.774Z,101431.16
2022-10-11T14:47:43.235Z,101430.94
2022-10-11T14:50:19.802Z,101413.78
2022-10-11T14:52:46.505Z,101446.03
2022-10-11T14:55:12.957Z,101407.28
2022-10-11T14:57:39.339Z,101349.59
2022-10-11T15:00:20.587Z,101369.63
2022-10-11T15:02:47.074Z,101441.38
2022-10-11T15:05:13.567Z,101417.41
2022-10-11T15:07:40.002Z,101447.19
2022-10-11T15:10:24.953Z,101527.81
2022-10-11T15:12:51.772Z,101454.00
2022-10-11T15:15:22.992Z,101500.69
2022-10-11T15:17:57.288Z,101529.88
2022-10-11T15:20:27.192Z,101458.28
2022-10-11T15:22:54.095Z,101486.63
2022-10-11T15:25:20.671Z,101413.03
2022-10-11T15:27:47.121Z,101210.75
2022-10-11T15:30:13.749Z,101297.03
2022-10-11T15:32:40.139Z,101310.94
2022-10-11T15:35:06.731Z,101296.75
2022-10-11T15:37:37.227Z,101117.56
2022-10-11T15:40:17.221Z,100941.25
2022-10-11T15:42:43.650Z,100620.44
2022-10-11T15:45:10.265Z,100514.75
2022-10-11T15:47:36.701Z,100399.34
2022-10-11T15:50:04.202Z,100293.91
2022-10-11T15:52:30.554Z,100210.81
2022-10-11T15:54:57.135Z,100175.44
2022-10-11T15:57:23.519Z,100093.56
2022-10-11T15:59:49.890Z,100039.78
2022-10-11T16:02:16.302Z,100010.63
2022-10-11T16:04:44.047Z,99946.34
2022-10-11T16:07:10.422Z,99911.94
2022-10-11T16:09:36.817Z,99856.38
2022-10-11T16:12:03.244Z,99762.34
2022-10-11T16:14:29.615Z,99732.81
2022-10-11T16:16:55.994Z,99745.72
2022-10-11T16:19:22.609Z,99726.97
2022-10-11T16:21:49.024Z,99692.47
2022-10-11T16:24:15.446Z,99612.44
2022-10-11T16:26:41.931Z,99556.94
2022-10-11T16:29:08.311Z,99482.97
2022-10-11T16:31:34.763Z,99450.38
2022-10-11T16:34:01.495Z,99415.03
2022-10-11T16:36:40.139Z,99350.78
2022-10-11T16:39:14.759Z,99316.25
2022-10-11T16:41:41.645Z,99278.13
2022-10-11T16:44:10.131Z,99279.50
2022-10-11T16:46:36.572Z,99247.72
2022-10-11T16:49:03.154Z,99179.88
2022-10-11T16:51:29.597Z,99155.81
2022-10-11T16:53:56.050Z,99129.94
2022-10-11T16:56:22.663Z,99068.13
2022-10-11T16:58:49.300Z,99006.34
2022-10-11T17:01:15.782Z,98988.31
2022-10-11T17:03:42.243Z,99033.34
2022-10-11T17:06:09.192Z,99009.47
2022-10-11T17:08:35.928Z,98967.88
2022-10-11T17:11:02.485Z,98931.59
2022-10-11T17:13:28.998Z,98949.41
2022-10-11T17:15:55.405Z,98885.09
2022-10-11T17:18:21.909Z,98807.63
2022-10-11T17:20:48.386Z,98823.00
2022-10-11T17:23:14.784Z,98736.72
2022-10-11T17:25:44.953Z,98782.38
2022-10-11T17:28:11.526Z,98720.66
2022-10-11T17:30:38.199Z,98700.72
2022-10-11T17:33:04.673Z,98732.47
2022-10-11T17:35:31.970Z,98643.78
2022-10-11T17:38:02.420Z,98652.81
2022-10-11T17:40:32.280Z,98674.97
2022-10-11T17:42:58.744Z,98607.16
2022-10-11T17:45:25.161Z,98631.09
2022-10-11T17:47:51.617Z,98618.34
2022-10-11T17:50:18.072Z,98627.47
2022-10-11T17:52:44.504Z,98601.63
2022-10-11T17:55:10.907Z,98594.88
2022-10-11T17:57:37.348Z,98556.59
2022-10-11T18:00:04.872Z,98540.31
2022-10-11T18:02:31.339Z,98549.16
2022-10-11T18:04:57.956Z,98531.72
2022-10-11T18:07:24.355Z,98482.06
2022-10-11T18:09:50.830Z,98468.22
2022-10-11T18:12:17.292Z,98452.75
2022-10-11T18:14:43.701Z,98432.16
2022-10-11T18:17:10.122Z,98403.69
2022-10-11T18:19:36.647Z,98400.56
2022-10-11T18:22:06.870Z,98456.53
2022-10-11T18:24:33.813Z,98458.47
2022-10-11T18:27:00.215Z,98451.78
2022-10-11T18:29:26.764Z,98376.97
2022-10-11T18:31:53.210Z,98343.97
2022-10-11T18:34:19.598Z,98317.22
2022-10-11T18:36:46.040Z,98353.97
2022-10-11T18:39:13.328Z,98373.50
2022-10-11T18:41:40.002Z,98408.72
2022-10-11T18:44:07.294Z,98352.38
2022-10-11T18:46:33.842Z,98316.91
2022-10-11T18:49:01.908Z,98293.66
2022-10-11T18:51:30.478Z,98306.81
2022-10-11T18:53:58.771Z,98295.59
2022-10-11T18:56:25.575Z,98261.09
2022-10-11T18:58:52.836Z,98162.84
2022-10-11T19:01:21.064Z,98100.22
2022-10-11T19:03:49.102Z,98063.69
2022-10-11T19:06:17.671Z,98083.06
2022-10-11T19:08:51.316Z,98127.75
2022-10-11T19:11:19.616Z,98144.50
2022-10-11T19:13:46.067Z,98137.78
2022-10-11T19:16:13.971Z,98134.59
2022-10-11T19:18:44.105Z,98160.09
2022-10-11T19:21:12.181Z,98159.31
2022-10-11T19:23:42.917Z,98213.34
2022-10-11T19:26:22.755Z,98217.63
2022-10-11T19:28:54.332Z,98276.19
2022-10-11T19:31:20.727Z,98312.78
2022-10-11T19:33:49.417Z,98285.00
2022-10-11T19:36:15.983Z,98279.06
2022-10-11T19:38:47.075Z,98283.66
2022-10-11T19:41:13.790Z,98273.25
2022-10-11T19:43:40.194Z,98227.31
2022-10-11T19:46:08.291Z,98205.75
2022-10-11T19:48:42.655Z,98240.06
2022-10-11T19:51:10.161Z,98304.56
2022-10-11T19:53:36.621Z,98339.53
2022-10-11T19:56:10.754Z,98365.84
2022-10-11T19:58:37.271Z,98347.81
2022-10-11T20:01:06.480Z,98343.75
2022-10-11T20:03:33.225Z,98322.22
2022-10-11T20:06:00.538Z,98318.69
2022-10-11T20:08:28.464Z,98304.91
2022-10-11T20:10:54.961Z,98297.16
2022-10-11T20:13:21.422Z,98286.06
2022-10-11T20:15:47.784Z,98285.47
2022-10-11T20:18:14.182Z,98333.44
2022-10-11T20:20:50.051Z,98385.69
2022-10-11T20:23:18.259Z,98374.56
2022-10-11T20:25:45.124Z,98346.91
2022-10-11T20:28:11.628Z,98335.03
2022-10-11T20:30:43.245Z,98302.00
2022-10-11T20:33:09.799Z,98290.97
2022-10-11T20:35:36.312Z,98294.66
2022-10-11T20:38:02.717Z,98267.75
2022-10-11T20:40:29.150Z,98195.50
2022-10-11T20:42:55.530Z,98164.44
2022-10-11T20:45:21.913Z,98174.06
2022-10-11T20:47:48.302Z,98164.72
2022-10-11T20:50:15.455Z,98168.25
2022-10-11T20:52:43.891Z,98093.53
2022-10-11T20:55:10.269Z,98007.41
2022-10-11T20:57:36.760Z,97961.31
2022-10-11T21:00:04.367Z,97944.66
2022-10-11T21:02:31.007Z,97937.69
2022-10-11T21:04:57.553Z,97949.19
2022-10-11T21:07:23.947Z,97951.78
2022-10-11T21:09:50.322Z,97940.47
2022-10-11T21:12:16.719Z,97934.56
2022-10-11T21:14:43.085Z,97949.53
2022-10-11T21:17:09.455Z,97922.63
2022-10-11T21:19:35.827Z,97848.63
2022-10-11T21:22:02.215Z,97829.59
2022-10-11T21:24:29.778Z,97880.16
2022-10-11T21:27:00.412Z,97935.19
2022-10-11T21:29:32.763Z,98002.09
2022-10-11T21:31:59.165Z,98064.94
2022-10-11T21:34:27.903Z,98104.13
2022-10-11T21:36:54.275Z,98120.06
2022-10-11T21:39:20.637Z,98121.75
2022-10-11T21:41:47.044Z,98147.16
2022-10-11T21:44:13.497Z,98139.44
2022-10-11T21:47:06.650Z,98125.81
2022-10-11T21:49:26.330Z,98099.94
2022-10-11T21:51:52.756Z,98090.44
2022-10-11T21:54:19.162Z,98048.75
2022-10-11T21:56:45.584Z,97996.69
2022-10-11T21:59:12.670Z,98000.22
2022-10-11T22:01:40.160Z,98021.19
2022-10-11T22:04:09.931Z,98024.88
2022-10-11T22:06:39.474Z,98033.75
2022-10-11T22:09:06.444Z,98044.34
2022-10-11T22:11:32.841Z,98068.03
2022-10-11T22:13:59.228Z,98106.38
2022-10-11T22:16:25.641Z,98121.31
2022-10-11T22:18:53.286Z,98114.66
2022-10-11T22:21:21.306Z,98142.59
2022-10-11T22:23:49.063Z,98187.16
2022-10-11T22:26:17.601Z,98195.03
2022-10-11T22:28:44.213Z,98152.50
2022-10-11T22:31:10.685Z,98134.44
2022-10-11T22:33:37.440Z,98153.69
2022-10-11T22:36:19.323Z,98096.34
2022-10-11T22:38:48.641Z,98091.28
2022-10-11T22:41:15.242Z,98100.94
2022-10-11T22:43:43.275Z,98101.00
2022-10-11T22:46:12.352Z,98107.22
2022-10-11T22:48:38.748Z,98135.19
2022-10-11T22:51:05.159Z,98144.91
2022-10-11T22:53:31.639Z,98158.09
2022-10-11T22:55:58.077Z,98169.50
2022-10-11T22:58:24.487Z,98179.19
2022-10-11T23:00:50.864Z,98136.69
2022-10-11T23:03:17.488Z,98109.94
2022-10-11T23:05:43.926Z,98130.72
2022-10-11T23:08:10.384Z,98133.38
2022-10-11T23:10:40.173Z,98136.09
2022-10-11T23:13:06.588Z,98157.13
2022-10-11T23:15:32.977Z,98147.66
2022-10-11T23:17:59.390Z,98157.38
2022-10-11T23:20:25.803Z,98174.06
2022-10-11T23:22:52.198Z,98178.59
2022-10-11T23:25:18.592Z,98208.16
2022-10-11T23:27:44.961Z,98208.16
2022-10-11T23:30:12.273Z,98211.75
2022-10-11T23:32:38.659Z,98195.34
2022-10-11T23:35:05.921Z,98170.97
2022-10-11T23:37:32.325Z,98168.38
2022-10-11T23:39:58.759Z,98168.38
2022-10-11T23:42:27.880Z,98159.78
2022-10-11T23:44:54.347Z,98184.03
2022-10-11T23:47:20.731Z,98187.59
2022-10-11T23:49:47.135Z,98181.50
2022-10-11T23:52:13.518Z,98159.78
2022-10-11T23:54:39.891Z,98149.41
2022-10-11T23:57:06.699Z,98145.91
2022-10-11T23:59:33.082Z,98151.09
